メインページ
METAR-TAF:

METAR-TAF

空港 :

ウラジオストク国際空港

ウラジオストク, ロシア

緯度: 43-07N, 経度: 131-56E, 海抜: 184m

現時点の気象観測

当レポートは27分前の19:00(UTC)に作成
変向風 2kt
気温 9°C
湿度 100%
気圧 1015 hPa
視程10km以上
高度300ftの雲は散在している

METAR: UHWW 181900Z VRB01MPS 9999 SCT003 09/09 Q1015 R25L/0///70 TEMPO 0300 FG VV002 RMK QFE760

時間: 05:27 (19:27 UTC)

予報

当レポートは1時間32分前の17:55(UTC)に作成
予報は18日の 18時(UTC)から 19日の 18時(UTC)まで有効
変向風 2kt
視程: 0300m
高度200ftの
18日の 18時(UTC)から 18日の 22時(UTC)まで一時的に
視程: 0200m
高度100ftの
18日の 22時(UTC)から 18日の 24時(UTC)まで徐々に
視程10km以上
高度1200ftの千切れ雲あり, 積乱雲.
19日の 0200時(UTC)から
北/北西の風 6kt
視程10km以上
高度4000ftの雲は散在している
19日の 03時(UTC)から 19日の 08時(UTC)まで一時的に
高度2000ftの雲は散在している, 積乱雲.
19日の 08時(UTC)から 19日の 09時(UTC)まで徐々に
南/南西の風 6kt

TAF: UHWW 181755Z 1818/1918 VRB01MPS 0300 FG VV002 TEMPO 1818/1822 0200 FG VV001 BECMG 1822/1824 9999 NSW BKN012CB FM190200 33003MPS 9999 SCT040 TEMPO 1903/1908 SCT020CB BECMG 1908/1909 20003MPS

4,000以上の空港の気象観測と天気予報(METAR報とTAF報)

利用可能な観測所は地図上に黄色い丸と赤い丸で示す。

丸の上にカーソルを重ねると観測所名を参照できる。

次にクリックすると気象観測と天気予報を参照できる。

マップの切り替え:黒色「×」印の緑ボタンをクリックして拡大、「-」印の緑ボタンをクリックして縮小、緑色の三角印をクリックして隣りの地図に切り替え


METAR-TAF: